Relevés horaires Bierset (Belgique)


Relevés horaires à Bierset - Vendredi 11 Mai 2018
Heure UTC1 Température [°C] Vent [km/h] Hum. [%] Pres.4 [hPa] Visi. [Km] Nébu. [octa] Préc.5 [mm] Cond.
2m. Res. Ros. Dir.2 Vit. Moy. Raf.3
23:00 14.1 14.1 7.0 SSE 3.7 5.6 9.3 62 1016.5(0.3/3h) 25 3/8 -- --
22:00 15.0 15.0 5.6 SSO 3.7 5.6 14.8 53 1016.4(0.7/3h) 25 3/8 -- --
21:00 15.9 15.9 6.8 SSE 3.7 5.6 5.6 55 1016(0.4/3h) 25 3/8 -- --
20:00 16.4 16.4 7.7 NNE 1.9 3.7 5.6 56 1016(0.2/3h) 25 3/8 -- --
19:00 16.2 16.2 8.4 NE 3.7 5.6 5.6 60 1015.6(-0.4/3h) 25 3/8 -- --
18:00 18.5 18.5 8.1 NO 1.9 7.4 14.8 51 1015.4(-0.9/3h) 25 3/8 0/12h
--
17:00 19.3 19.3 6.6 NNO 1.9 3.7 5.6 44 1015.6(-1.1/3h) 20 3/8 -- --
16:00 18.6 18.6 6.2 NNO 1.9 7.4 9.3 44 1015.9(-1.3/3h) 20 4/8 -- --
15:00 18.7 18.7 9.8 NNE 7.4 7.4 14.8 56 1016.3(-1.4/3h) 20 4/8 -- --
14:00 17.3 17.3 9.3 N 5.6 5.6 9.3 59 1016.8(-1.5/3h) 20 6/8 -- --
13:00 17.2 17.2 9.9 N 5.6 7.4 9.3 62 1017.3(-1.5/3h) 20 5/8 -- --
12:00 16.7 16.7 9.6 NNE 3.7 7.4 22.2 63 1017.9(-1.7/3h) 20 5/8 0/6h
--
11:00 16.7 16.7 9.2 NNO 3.7 3.7 7.4 61 1018.4(-1.6/3h) 20 5/8 -- --
10:00 15.0 15.0 8.1 NNO 1.9 3.7 9.3 63 1019(-1.4/3h) 20 4/8 -- --
09:00 14.2 14.2 7.7 NNO 3.7 7.4 22.2 65 1019.8(-0.9/3h) 20 3/8 -- --
08:00 12.7 12.7 6.8 ESE 3.7 5.6 14.8 67 1020.4(-0.6/3h) 20 1/8 -- --
07:00 10.5 10.2 6.8 NNO 5.6 7.4 22.2 78 1020.8(-0.4/3h) 20 1/8 -- --
06:00 9.0 9.0 6.3 E 3.7 5.6 7.4 83 1021.1(-0.2/3h) 20 1/8 0.8/12h
--
05:00 7.7 7.7 5.6 ESE 3.7 5.6 7.4 87 1021.4(-0.3/3h) 20 0/8 -- --
04:00 6.9 6.9 5.1 NE 3.7 3.7 3.7 88 1021.5(-0.4/3h) 20 0/8 -- --
03:00 8.1 8.1 5.6 N 1.9 3.7 3.7 84 1021.5(-0.4/3h) 20 0/8 -- --
02:00 7.6 7.6 6.7 N 1.9 1.9 1.9 94 1021.7(0.0/3h) 20 0/8 -- --
01:00 7.7 7.7 7.1 NNO 0.0 1.9 1.9 96 1021.8(0.1/3h) 20 0/8 -- --
00:00 8.6 8.6 6.4 NNO 1.9 7.4 11.1 86 1021.8(0.4/3h) 20 0/8 0.8/6h
4.8/24h
Nuages se dissipant

1 Coordinated Universal Time. Actuellement il est 10:00 locale et 08:00 UTC.

2 Le vent souffle depuis la direction indiquée vers la direction oposée.

3 Les rafales max. sont disponible 40 min après l'heure du relevé.

4 Pour les stations d'altitude (plus de 600m) le géopotentiel du niveau le plus proche de la pression obligatoire est indiqué.

5 Les stations disposant d'un diffuseur peuvent indiquer "trace". Cela signifie que des précipitations ont touchés le sol mais que la quantité est inférieure à 0.1 mm.

Récapitulatif de la journée
Température [°C] Vent [km/h] Ensoleillement4 [h] Precipitations totale5 [mm] Pression [Hpa]
Min1 Max.2 Moy.3 Max. Min Max.
6.6 19.5 5.4 22.2 0 h 0 min 0 1015.4 1021.8

1 Température minimale relevée entre 18:00 UTC la veille et 18:00 UTC le jour donné.

2 Température maximale relevée entre 06:00 UTC le jour donné et 06:00 UTC le lendemain.

3 Vent moyen de la journée basé sur les relevés horaires.

4 Ensoleillement en heures relevé entre 06:00 UTC la veille et 06:00 UTC le jour donné.

5 Précipitations totales tombées entre 06:00 UTC la jour donné et 06:00 UTC le lendemain.

Graphiques horaires